sensor_id;sensor_type;location;lat;lon;timestamp;temperature;humidity
20590;DHT22;10453;50.810;12.540;2024-03-02T00:00:50;6.40;99.90
20590;DHT22;10453;50.810;12.540;2024-03-02T00:05:10;6.40;99.90
20590;DHT22;10453;50.810;12.540;2024-03-02T00:09:28;6.40;99.90
20590;DHT22;10453;50.810;12.540;2024-03-02T00:13:45;6.40;99.90
20590;DHT22;10453;50.810;12.540;2024-03-02T00:18:03;6.40;99.90
20590;DHT22;10453;50.810;12.540;2024-03-02T00:22:21;6.50;99.90
20590;DHT22;10453;50.810;12.540;2024-03-02T00:26:39;6.50;99.90
20590;DHT22;10453;50.810;12.540;2024-03-02T00:35:22;6.30;99.90
20590;DHT22;10453;50.810;12.540;2024-03-02T00:39:40;6.50;99.90
20590;DHT22;10453;50.810;12.540;2024-03-02T00:44:06;6.40;99.90
20590;DHT22;10453;50.810;12.540;2024-03-02T00:48:25;6.50;99.90
20590;DHT22;10453;50.810;12.540;2024-03-02T00:52:42;6.60;99.90
20590;DHT22;10453;50.810;12.540;2024-03-02T00:56:59;6.50;99.90
20590;DHT22;10453;50.810;12.540;2024-03-02T01:01:17;6.50;99.90
20590;DHT22;10453;50.810;12.540;2024-03-02T01:05:34;6.50;99.90
20590;DHT22;10453;50.810;12.540;2024-03-02T01:09:52;6.40;99.90
20590;DHT22;10453;50.810;12.540;2024-03-02T01:14:09;6.40;99.90
20590;DHT22;10453;50.810;12.540;2024-03-02T01:18:27;6.40;99.90
20590;DHT22;10453;50.810;12.540;2024-03-02T01:22:44;6.50;99.90
20590;DHT22;10453;50.810;12.540;2024-03-02T01:27:01;6.40;99.90
20590;DHT22;10453;50.810;12.540;2024-03-02T01:31:18;6.50;99.90
20590;DHT22;10453;50.810;12.540;2024-03-02T01:35:35;6.40;99.90
20590;DHT22;10453;50.810;12.540;2024-03-02T01:39:52;6.40;99.90
20590;DHT22;10453;50.810;12.540;2024-03-02T01:44:10;6.50;99.90
20590;DHT22;10453;50.810;12.540;2024-03-02T01:48:27;6.50;99.90
20590;DHT22;10453;50.810;12.540;2024-03-02T01:52:44;6.60;99.90
20590;DHT22;10453;50.810;12.540;2024-03-02T01:57:01;6.60;99.90
20590;DHT22;10453;50.810;12.540;2024-03-02T02:01:19;6.60;99.90
20590;DHT22;10453;50.810;12.540;2024-03-02T02:05:36;6.60;99.90
20590;DHT22;10453;50.810;12.540;2024-03-02T02:09:53;6.60;99.90
20590;DHT22;10453;50.810;12.540;2024-03-02T02:14:12;6.60;99.90
20590;DHT22;10453;50.810;12.540;2024-03-02T02:18:30;6.60;99.90
20590;DHT22;10453;50.810;12.540;2024-03-02T02:22:57;6.70;99.90
20590;DHT22;10453;50.810;12.540;2024-03-02T02:27:14;6.60;99.90
20590;DHT22;10453;50.810;12.540;2024-03-02T02:31:39;6.60;99.90
20590;DHT22;10453;50.810;12.540;2024-03-02T02:35:56;6.60;99.90
20590;DHT22;10453;50.810;12.540;2024-03-02T02:40:13;6.60;99.90
20590;DHT22;10453;50.810;12.540;2024-03-02T02:44:31;6.60;99.90
20590;DHT22;10453;50.810;12.540;2024-03-02T02:48:48;6.70;99.90
20590;DHT22;10453;50.810;12.540;2024-03-02T02:53:05;6.70;99.90
20590;DHT22;10453;50.810;12.540;2024-03-02T02:57:23;6.60;99.90
20590;DHT22;10453;50.810;12.540;2024-03-02T03:01:40;6.50;99.90
20590;DHT22;10453;50.810;12.540;2024-03-02T03:05:57;6.50;99.90
20590;DHT22;10453;50.810;12.540;2024-03-02T03:10:14;6.50;99.90
20590;DHT22;10453;50.810;12.540;2024-03-02T03:14:32;6.50;99.90
20590;DHT22;10453;50.810;12.540;2024-03-02T03:18:49;6.60;99.90
20590;DHT22;10453;50.810;12.540;2024-03-02T03:23:09;6.60;99.90
20590;DHT22;10453;50.810;12.540;2024-03-02T03:27:26;6.70;99.90
20590;DHT22;10453;50.810;12.540;2024-03-02T03:31:43;6.70;99.90
20590;DHT22;10453;50.810;12.540;2024-03-02T03:36:00;6.80;99.90
20590;DHT22;10453;50.810;12.540;2024-03-02T03:40:20;6.80;99.90
20590;DHT22;10453;50.810;12.540;2024-03-02T03:44:37;6.80;99.90
20590;DHT22;10453;50.810;12.540;2024-03-02T03:48:56;7.00;99.90
20590;DHT22;10453;50.810;12.540;2024-03-02T03:53:13;7.10;99.90
20590;DHT22;10453;50.810;12.540;2024-03-02T03:57:31;7.10;99.90
20590;DHT22;10453;50.810;12.540;2024-03-02T04:01:49;7.10;99.90
20590;DHT22;10453;50.810;12.540;2024-03-02T04:06:06;7.00;99.90
20590;DHT22;10453;50.810;12.540;2024-03-02T04:10:23;7.00;99.90
20590;DHT22;10453;50.810;12.540;2024-03-02T04:14:41;7.00;99.90
20590;DHT22;10453;50.810;12.540;2024-03-02T04:18:59;6.90;99.90
20590;DHT22;10453;50.810;12.540;2024-03-02T04:23:17;6.90;99.90
20590;DHT22;10453;50.810;12.540;2024-03-02T04:27:34;5.90;99.90
20590;DHT22;10453;50.810;12.540;2024-03-02T04:31:51;6.90;99.90
20590;DHT22;10453;50.810;12.540;2024-03-02T04:36:09;6.90;99.90
20590;DHT22;10453;50.810;12.540;2024-03-02T04:40:29;6.90;99.90
20590;DHT22;10453;50.810;12.540;2024-03-02T04:44:46;6.80;99.90
20590;DHT22;10453;50.810;12.540;2024-03-02T04:49:03;6.70;99.90
20590;DHT22;10453;50.810;12.540;2024-03-02T04:53:20;6.60;99.90
20590;DHT22;10453;50.810;12.540;2024-03-02T04:57:39;6.60;99.90
20590;DHT22;10453;50.810;12.540;2024-03-02T05:01:56;6.40;99.90
20590;DHT22;10453;50.810;12.540;2024-03-02T05:06:13;6.40;99.90
20590;DHT22;10453;50.810;12.540;2024-03-02T05:10:31;6.30;99.90
20590;DHT22;10453;50.810;12.540;2024-03-02T05:14:48;6.30;99.90
20590;DHT22;10453;50.810;12.540;2024-03-02T05:19:05;6.20;99.90
20590;DHT22;10453;50.810;12.540;2024-03-02T05:23:23;6.20;99.90
20590;DHT22;10453;50.810;12.540;2024-03-02T05:27:41;6.20;99.90
20590;DHT22;10453;50.810;12.540;2024-03-02T05:31:58;6.20;99.90
20590;DHT22;10453;50.810;12.540;2024-03-02T05:36:16;6.20;99.90
20590;DHT22;10453;50.810;12.540;2024-03-02T05:40:33;6.20;99.90
20590;DHT22;10453;50.810;12.540;2024-03-02T05:44:50;6.30;99.90
20590;DHT22;10453;50.810;12.540;2024-03-02T05:49:07;6.20;99.90
20590;DHT22;10453;50.810;12.540;2024-03-02T05:53:25;6.30;99.90
20590;DHT22;10453;50.810;12.540;2024-03-02T05:57:42;6.40;99.90
20590;DHT22;10453;50.810;12.540;2024-03-02T06:02:12;6.40;99.90
20590;DHT22;10453;50.810;12.540;2024-03-02T06:06:30;6.50;99.90
20590;DHT22;10453;50.810;12.540;2024-03-02T06:10:47;6.60;99.90
20590;DHT22;10453;50.810;12.540;2024-03-02T06:15:04;6.60;99.90
20590;DHT22;10453;50.810;12.540;2024-03-02T06:19:21;6.50;99.90
20590;DHT22;10453;50.810;12.540;2024-03-02T06:23:39;6.60;99.90
20590;DHT22;10453;50.810;12.540;2024-03-02T06:27:56;6.60;99.90
20590;DHT22;10453;50.810;12.540;2024-03-02T06:32:13;6.60;99.90
20590;DHT22;10453;50.810;12.540;2024-03-02T06:36:30;6.60;99.90
20590;DHT22;10453;50.810;12.540;2024-03-02T06:40:47;6.80;99.90
20590;DHT22;10453;50.810;12.540;2024-03-02T06:45:04;6.80;99.90
20590;DHT22;10453;50.810;12.540;2024-03-02T06:49:22;6.80;99.90
20590;DHT22;10453;50.810;12.540;2024-03-02T06:53:39;6.90;99.90
20590;DHT22;10453;50.810;12.540;2024-03-02T06:57:56;6.90;99.90
20590;DHT22;10453;50.810;12.540;2024-03-02T07:02:13;7.00;99.90
20590;DHT22;10453;50.810;12.540;2024-03-02T07:06:30;7.10;99.90
20590;DHT22;10453;50.810;12.540;2024-03-02T07:10:48;7.20;99.90
20590;DHT22;10453;50.810;12.540;2024-03-02T07:15:05;7.20;99.90
20590;DHT22;10453;50.810;12.540;2024-03-02T07:19:22;7.40;99.90
20590;DHT22;10453;50.810;12.540;2024-03-02T07:23:39;7.60;99.90
20590;DHT22;10453;50.810;12.540;2024-03-02T07:27:57;7.80;99.90
20590;DHT22;10453;50.810;12.540;2024-03-02T07:32:14;8.10;99.90
20590;DHT22;10453;50.810;12.540;2024-03-02T07:36:32;8.30;99.90
20590;DHT22;10453;50.810;12.540;2024-03-02T07:40:49;8.50;99.90
20590;DHT22;10453;50.810;12.540;2024-03-02T07:45:10;8.80;99.90
20590;DHT22;10453;50.810;12.540;2024-03-02T07:49:27;8.90;99.90
20590;DHT22;10453;50.810;12.540;2024-03-02T07:53:44;9.00;99.90
20590;DHT22;10453;50.810;12.540;2024-03-02T07:58:03;9.10;99.90
20590;DHT22;10453;50.810;12.540;2024-03-02T08:02:21;9.30;99.90
20590;DHT22;10453;50.810;12.540;2024-03-02T08:06:38;9.40;99.90
20590;DHT22;10453;50.810;12.540;2024-03-02T08:10:56;9.50;99.90
20590;DHT22;10453;50.810;12.540;2024-03-02T08:15:14;9.60;99.90
20590;DHT22;10453;50.810;12.540;2024-03-02T08:19:31;9.60;99.90
20590;DHT22;10453;50.810;12.540;2024-03-02T08:23:49;9.60;99.90
20590;DHT22;10453;50.810;12.540;2024-03-02T08:28:06;9.50;99.90
20590;DHT22;10453;50.810;12.540;2024-03-02T08:32:23;9.70;99.90
20590;DHT22;10453;50.810;12.540;2024-03-02T08:36:40;9.80;99.90
20590;DHT22;10453;50.810;12.540;2024-03-02T08:40:58;9.80;99.90
20590;DHT22;10453;50.810;12.540;2024-03-02T08:45:15;9.90;99.90
20590;DHT22;10453;50.810;12.540;2024-03-02T08:49:32;10.00;99.90
20590;DHT22;10453;50.810;12.540;2024-03-02T08:53:50;10.00;99.90
20590;DHT22;10453;50.810;12.540;2024-03-02T08:58:07;10.10;99.90
20590;DHT22;10453;50.810;12.540;2024-03-02T09:02:24;10.30;99.90
20590;DHT22;10453;50.810;12.540;2024-03-02T09:06:42;10.30;99.90
20590;DHT22;10453;50.810;12.540;2024-03-02T09:10:59;10.30;99.90
20590;DHT22;10453;50.810;12.540;2024-03-02T09:15:16;10.30;99.90
20590;DHT22;10453;50.810;12.540;2024-03-02T09:19:33;10.50;99.90
20590;DHT22;10453;50.810;12.540;2024-03-02T09:23:50;10.70;99.90
20590;DHT22;10453;50.810;12.540;2024-03-02T09:28:07;10.60;99.90
20590;DHT22;10453;50.810;12.540;2024-03-02T09:32:25;10.60;99.90
20590;DHT22;10453;50.810;12.540;2024-03-02T09:36:42;10.60;99.90
20590;DHT22;10453;50.810;12.540;2024-03-02T09:41:00;10.80;99.90
20590;DHT22;10453;50.810;12.540;2024-03-02T09:45:20;10.80;99.90
20590;DHT22;10453;50.810;12.540;2024-03-02T09:49:39;10.70;99.90
20590;DHT22;10453;50.810;12.540;2024-03-02T09:53:57;10.90;99.90
20590;DHT22;10453;50.810;12.540;2024-03-02T09:58:29;11.10;99.90
20590;DHT22;10453;50.810;12.540;2024-03-02T10:02:46;11.00;99.90
20590;DHT22;10453;50.810;12.540;2024-03-02T10:07:09;11.30;99.90
20590;DHT22;10453;50.810;12.540;2024-03-02T10:11:28;11.40;99.90
20590;DHT22;10453;50.810;12.540;2024-03-02T10:15:48;11.50;99.90
20590;DHT22;10453;50.810;12.540;2024-03-02T10:24:51;12.00;99.90
20590;DHT22;10453;50.810;12.540;2024-03-02T10:29:15;12.40;99.90
20590;DHT22;10453;50.810;12.540;2024-03-02T10:33:32;12.60;99.90
20590;DHT22;10453;50.810;12.540;2024-03-02T10:37:50;13.20;99.90
20590;DHT22;10453;50.810;12.540;2024-03-02T10:42:07;13.30;99.90
20590;DHT22;10453;50.810;12.540;2024-03-02T10:46:28;14.30;99.90
20590;DHT22;10453;50.810;12.540;2024-03-02T10:50:49;13.90;99.90
20590;DHT22;10453;50.810;12.540;2024-03-02T10:55:06;13.60;99.90
20590;DHT22;10453;50.810;12.540;2024-03-02T10:59:27;13.50;99.90
20590;DHT22;10453;50.810;12.540;2024-03-02T11:03:47;14.10;99.90
20590;DHT22;10453;50.810;12.540;2024-03-02T11:08:08;13.90;99.90
20590;DHT22;10453;50.810;12.540;2024-03-02T11:12:29;14.20;99.90
20590;DHT22;10453;50.810;12.540;2024-03-02T11:16:48;13.40;99.90
20590;DHT22;10453;50.810;12.540;2024-03-02T11:21:05;13.40;99.90
20590;DHT22;10453;50.810;12.540;2024-03-02T11:25:24;13.20;99.90
20590;DHT22;10453;50.810;12.540;2024-03-02T11:34:06;14.50;99.90
20590;DHT22;10453;50.810;12.540;2024-03-02T11:38:34;14.60;99.90
20590;DHT22;10453;50.810;12.540;2024-03-02T11:42:53;14.10;99.90
20590;DHT22;10453;50.810;12.540;2024-03-02T11:47:11;14.50;99.90
20590;DHT22;10453;50.810;12.540;2024-03-02T11:51:32;15.30;99.90
20590;DHT22;10453;50.810;12.540;2024-03-02T11:55:50;16.30;99.90
20590;DHT22;10453;50.810;12.540;2024-03-02T12:00:16;15.50;99.90
20590;DHT22;10453;50.810;12.540;2024-03-02T12:04:33;16.10;99.90
20590;DHT22;10453;50.810;12.540;2024-03-02T12:08:52;16.20;99.90
20590;DHT22;10453;50.810;12.540;2024-03-02T12:13:10;16.40;99.90
20590;DHT22;10453;50.810;12.540;2024-03-02T12:17:29;16.50;99.90
20590;DHT22;10453;50.810;12.540;2024-03-02T12:21:46;17.40;99.90
20590;DHT22;10453;50.810;12.540;2024-03-02T12:26:03;18.10;99.90
20590;DHT22;10453;50.810;12.540;2024-03-02T12:30:21;17.30;99.90
20590;DHT22;10453;50.810;12.540;2024-03-02T12:34:38;17.90;99.90
20590;DHT22;10453;50.810;12.540;2024-03-02T12:38:56;17.40;99.90
20590;DHT22;10453;50.810;12.540;2024-03-02T12:43:14;17.30;99.90
20590;DHT22;10453;50.810;12.540;2024-03-02T12:47:31;15.90;99.90
20590;DHT22;10453;50.810;12.540;2024-03-02T12:51:48;14.70;99.90
20590;DHT22;10453;50.810;12.540;2024-03-02T12:56:09;14.80;99.90
20590;DHT22;10453;50.810;12.540;2024-03-02T13:00:26;15.80;99.90
20590;DHT22;10453;50.810;12.540;2024-03-02T13:04:43;16.30;99.90
20590;DHT22;10453;50.810;12.540;2024-03-02T13:09:01;16.20;99.90
20590;DHT22;10453;50.810;12.540;2024-03-02T13:13:18;16.00;99.90
20590;DHT22;10453;50.810;12.540;2024-03-02T13:17:35;16.20;99.90
20590;DHT22;10453;50.810;12.540;2024-03-02T13:21:54;15.80;99.90
20590;DHT22;10453;50.810;12.540;2024-03-02T13:26:12;15.40;99.90
20590;DHT22;10453;50.810;12.540;2024-03-02T13:30:30;15.20;99.90
20590;DHT22;10453;50.810;12.540;2024-03-02T13:34:48;15.20;99.90
20590;DHT22;10453;50.810;12.540;2024-03-02T13:39:05;15.30;99.90
20590;DHT22;10453;50.810;12.540;2024-03-02T13:43:22;15.00;99.90
20590;DHT22;10453;50.810;12.540;2024-03-02T13:47:40;15.20;99.90
20590;DHT22;10453;50.810;12.540;2024-03-02T13:51:58;15.20;99.90
20590;DHT22;10453;50.810;12.540;2024-03-02T13:56:17;15.00;99.90
20590;DHT22;10453;50.810;12.540;2024-03-02T14:00:34;14.80;99.90
20590;DHT22;10453;50.810;12.540;2024-03-02T14:04:51;14.90;99.90
20590;DHT22;10453;50.810;12.540;2024-03-02T14:09:09;14.90;99.90
20590;DHT22;10453;50.810;12.540;2024-03-02T14:13:26;15.10;99.90
20590;DHT22;10453;50.810;12.540;2024-03-02T14:17:44;14.70;99.90
20590;DHT22;10453;50.810;12.540;2024-03-02T14:22:01;14.90;99.90
20590;DHT22;10453;50.810;12.540;2024-03-02T14:26:19;14.90;99.90
20590;DHT22;10453;50.810;12.540;2024-03-02T14:30:36;15.10;99.90
20590;DHT22;10453;50.810;12.540;2024-03-02T14:34:54;15.10;99.90
20590;DHT22;10453;50.810;12.540;2024-03-02T14:39:12;15.10;99.90
20590;DHT22;10453;50.810;12.540;2024-03-02T14:43:29;15.10;99.90
20590;DHT22;10453;50.810;12.540;2024-03-02T14:47:46;15.10;99.90
20590;DHT22;10453;50.810;12.540;2024-03-02T14:52:04;14.90;99.90
20590;DHT22;10453;50.810;12.540;2024-03-02T14:56:21;14.90;99.90
20590;DHT22;10453;50.810;12.540;2024-03-02T15:00:38;14.90;99.90
20590;DHT22;10453;50.810;12.540;2024-03-02T15:04:55;14.90;99.90
20590;DHT22;10453;50.810;12.540;2024-03-02T15:09:13;14.90;99.90
20590;DHT22;10453;50.810;12.540;2024-03-02T15:13:30;14.80;99.90
20590;DHT22;10453;50.810;12.540;2024-03-02T15:17:47;14.90;99.90
20590;DHT22;10453;50.810;12.540;2024-03-02T15:22:04;14.80;99.90
20590;DHT22;10453;50.810;12.540;2024-03-02T15:26:22;14.70;99.90
20590;DHT22;10453;50.810;12.540;2024-03-02T15:30:39;14.70;99.90
20590;DHT22;10453;50.810;12.540;2024-03-02T15:34:56;14.70;99.90
20590;DHT22;10453;50.810;12.540;2024-03-02T15:39:14;14.80;99.90
20590;DHT22;10453;50.810;12.540;2024-03-02T15:43:32;14.80;99.90
20590;DHT22;10453;50.810;12.540;2024-03-02T15:47:49;14.80;99.90
20590;DHT22;10453;50.810;12.540;2024-03-02T15:52:06;14.70;99.90
20590;DHT22;10453;50.810;12.540;2024-03-02T15:56:24;14.60;99.90
20590;DHT22;10453;50.810;12.540;2024-03-02T16:00:41;14.40;99.90
20590;DHT22;10453;50.810;12.540;2024-03-02T16:04:58;14.30;99.90
20590;DHT22;10453;50.810;12.540;2024-03-02T16:09:16;14.10;99.90
20590;DHT22;10453;50.810;12.540;2024-03-02T16:13:33;13.90;99.90
20590;DHT22;10453;50.810;12.540;2024-03-02T16:17:50;13.90;99.90
20590;DHT22;10453;50.810;12.540;2024-03-02T16:22:07;13.80;99.90
20590;DHT22;10453;50.810;12.540;2024-03-02T16:26:28;13.60;99.90
20590;DHT22;10453;50.810;12.540;2024-03-02T16:30:45;13.40;99.90
20590;DHT22;10453;50.810;12.540;2024-03-02T16:35:02;13.00;99.90
20590;DHT22;10453;50.810;12.540;2024-03-02T16:39:20;12.70;99.90
20590;DHT22;10453;50.810;12.540;2024-03-02T16:43:37;12.40;99.90
20590;DHT22;10453;50.810;12.540;2024-03-02T16:47:56;12.20;99.90
20590;DHT22;10453;50.810;12.540;2024-03-02T16:52:13;11.90;99.90
20590;DHT22;10453;50.810;12.540;2024-03-02T16:56:38;11.60;99.90
20590;DHT22;10453;50.810;12.540;2024-03-02T17:00:56;11.30;99.90
20590;DHT22;10453;50.810;12.540;2024-03-02T17:05:13;11.20;99.90
20590;DHT22;10453;50.810;12.540;2024-03-02T17:09:30;11.00;99.90
20590;DHT22;10453;50.810;12.540;2024-03-02T17:13:48;10.90;99.90
20590;DHT22;10453;50.810;12.540;2024-03-02T17:18:08;10.70;99.90
20590;DHT22;10453;50.810;12.540;2024-03-02T17:22:25;10.60;99.90
20590;DHT22;10453;50.810;12.540;2024-03-02T17:26:43;10.40;99.90
20590;DHT22;10453;50.810;12.540;2024-03-02T17:31:00;10.30;99.90
20590;DHT22;10453;50.810;12.540;2024-03-02T17:35:18;10.20;99.90
20590;DHT22;10453;50.810;12.540;2024-03-02T17:39:35;10.10;99.90
20590;DHT22;10453;50.810;12.540;2024-03-02T17:43:52;10.00;99.90
20590;DHT22;10453;50.810;12.540;2024-03-02T17:48:09;9.80;99.90
20590;DHT22;10453;50.810;12.540;2024-03-02T17:52:29;9.70;99.90
20590;DHT22;10453;50.810;12.540;2024-03-02T17:56:46;9.60;99.90
20590;DHT22;10453;50.810;12.540;2024-03-02T18:01:03;9.40;99.90
20590;DHT22;10453;50.810;12.540;2024-03-02T18:05:20;9.30;99.90
20590;DHT22;10453;50.810;12.540;2024-03-02T18:09:38;9.20;99.90
20590;DHT22;10453;50.810;12.540;2024-03-02T18:13:55;9.20;99.90
20590;DHT22;10453;50.810;12.540;2024-03-02T18:18:12;9.10;99.90
20590;DHT22;10453;50.810;12.540;2024-03-02T18:22:29;9.00;99.90
20590;DHT22;10453;50.810;12.540;2024-03-02T18:26:47;9.00;99.90
20590;DHT22;10453;50.810;12.540;2024-03-02T18:31:04;9.00;99.90
20590;DHT22;10453;50.810;12.540;2024-03-02T18:35:22;8.90;99.90
20590;DHT22;10453;50.810;12.540;2024-03-02T18:39:39;8.90;99.90
20590;DHT22;10453;50.810;12.540;2024-03-02T18:43:56;8.80;99.90
20590;DHT22;10453;50.810;12.540;2024-03-02T18:48:14;8.70;99.90
20590;DHT22;10453;50.810;12.540;2024-03-02T18:52:31;8.60;99.90
20590;DHT22;10453;50.810;12.540;2024-03-02T18:56:52;8.40;99.90
20590;DHT22;10453;50.810;12.540;2024-03-02T19:01:09;8.30;99.90
20590;DHT22;10453;50.810;12.540;2024-03-02T19:05:26;8.10;99.90
20590;DHT22;10453;50.810;12.540;2024-03-02T19:09:43;8.00;99.90
20590;DHT22;10453;50.810;12.540;2024-03-02T19:14:01;7.80;99.90
20590;DHT22;10453;50.810;12.540;2024-03-02T19:18:18;7.70;99.90
20590;DHT22;10453;50.810;12.540;2024-03-02T19:22:35;7.50;99.90
20590;DHT22;10453;50.810;12.540;2024-03-02T19:26:58;7.40;99.90
20590;DHT22;10453;50.810;12.540;2024-03-02T19:31:15;7.20;99.90
20590;DHT22;10453;50.810;12.540;2024-03-02T19:35:33;7.10;99.90
20590;DHT22;10453;50.810;12.540;2024-03-02T19:39:50;7.00;99.90
20590;DHT22;10453;50.810;12.540;2024-03-02T19:44:08;6.90;99.90
20590;DHT22;10453;50.810;12.540;2024-03-02T19:48:25;6.80;99.90
20590;DHT22;10453;50.810;12.540;2024-03-02T19:52:42;6.70;99.90
20590;DHT22;10453;50.810;12.540;2024-03-02T19:56:59;6.60;99.90
20590;DHT22;10453;50.810;12.540;2024-03-02T20:01:16;6.60;99.90
20590;DHT22;10453;50.810;12.540;2024-03-02T20:05:34;6.50;99.90
20590;DHT22;10453;50.810;12.540;2024-03-02T20:09:51;6.40;99.90
20590;DHT22;10453;50.810;12.540;2024-03-02T20:14:10;6.30;99.90
20590;DHT22;10453;50.810;12.540;2024-03-02T20:18:27;6.20;99.90
20590;DHT22;10453;50.810;12.540;2024-03-02T20:22:44;6.20;99.90
20590;DHT22;10453;50.810;12.540;2024-03-02T20:27:02;6.20;99.90
20590;DHT22;10453;50.810;12.540;2024-03-02T20:31:24;6.00;99.90
20590;DHT22;10453;50.810;12.540;2024-03-02T20:35:42;6.00;99.90
20590;DHT22;10453;50.810;12.540;2024-03-02T20:39:59;5.90;99.90
20590;DHT22;10453;50.810;12.540;2024-03-02T20:44:17;5.90;99.90
20590;DHT22;10453;50.810;12.540;2024-03-02T20:48:36;5.90;99.90
20590;DHT22;10453;50.810;12.540;2024-03-02T20:52:53;5.80;99.90
20590;DHT22;10453;50.810;12.540;2024-03-02T20:57:13;5.80;99.90
20590;DHT22;10453;50.810;12.540;2024-03-02T21:01:30;5.70;99.90
20590;DHT22;10453;50.810;12.540;2024-03-02T21:05:48;5.70;99.90
20590;DHT22;10453;50.810;12.540;2024-03-02T21:10:05;5.60;99.90
20590;DHT22;10453;50.810;12.540;2024-03-02T21:14:25;5.60;99.90
20590;DHT22;10453;50.810;12.540;2024-03-02T21:18:43;5.60;99.90
20590;DHT22;10453;50.810;12.540;2024-03-02T21:23:00;5.40;99.90
20590;DHT22;10453;50.810;12.540;2024-03-02T21:27:19;5.40;99.90
20590;DHT22;10453;50.810;12.540;2024-03-02T21:31:37;5.40;99.90
20590;DHT22;10453;50.810;12.540;2024-03-02T21:35:54;5.30;99.90
20590;DHT22;10453;50.810;12.540;2024-03-02T21:40:11;5.30;99.90
20590;DHT22;10453;50.810;12.540;2024-03-02T21:44:29;5.20;99.90
20590;DHT22;10453;50.810;12.540;2024-03-02T21:48:46;5.10;99.90
20590;DHT22;10453;50.810;12.540;2024-03-02T21:53:11;5.10;99.90
20590;DHT22;10453;50.810;12.540;2024-03-02T21:57:32;5.00;99.90
20590;DHT22;10453;50.810;12.540;2024-03-02T22:01:49;5.00;99.90
20590;DHT22;10453;50.810;12.540;2024-03-02T22:06:09;4.80;99.90
20590;DHT22;10453;50.810;12.540;2024-03-02T22:10:26;4.80;99.90
20590;DHT22;10453;50.810;12.540;2024-03-02T22:14:43;4.80;99.90
20590;DHT22;10453;50.810;12.540;2024-03-02T22:19:00;4.70;99.90
20590;DHT22;10453;50.810;12.540;2024-03-02T22:23:18;4.80;99.90
20590;DHT22;10453;50.810;12.540;2024-03-02T22:27:35;4.80;99.90
20590;DHT22;10453;50.810;12.540;2024-03-02T22:31:58;4.70;99.90
20590;DHT22;10453;50.810;12.540;2024-03-02T22:36:18;4.60;99.90
20590;DHT22;10453;50.810;12.540;2024-03-02T22:40:36;4.40;99.90
20590;DHT22;10453;50.810;12.540;2024-03-02T22:44:53;4.40;99.90
20590;DHT22;10453;50.810;12.540;2024-03-02T22:49:10;4.40;99.90
20590;DHT22;10453;50.810;12.540;2024-03-02T22:53:27;4.30;99.90
20590;DHT22;10453;50.810;12.540;2024-03-02T22:57:44;4.30;99.90
20590;DHT22;10453;50.810;12.540;2024-03-02T23:02:01;4.20;99.90
20590;DHT22;10453;50.810;12.540;2024-03-02T23:06:19;4.10;99.90
20590;DHT22;10453;50.810;12.540;2024-03-02T23:10:36;4.10;99.90
20590;DHT22;10453;50.810;12.540;2024-03-02T23:14:53;4.00;99.90
20590;DHT22;10453;50.810;12.540;2024-03-02T23:19:12;4.00;99.90
20590;DHT22;10453;50.810;12.540;2024-03-02T23:23:31;3.90;99.90
20590;DHT22;10453;50.810;12.540;2024-03-02T23:27:48;3.80;99.90
20590;DHT22;10453;50.810;12.540;2024-03-02T23:32:06;3.70;99.90
20590;DHT22;10453;50.810;12.540;2024-03-02T23:36:24;3.70;99.90
20590;DHT22;10453;50.810;12.540;2024-03-02T23:40:41;3.60;99.90
20590;DHT22;10453;50.810;12.540;2024-03-02T23:45:04;3.60;99.90
20590;DHT22;10453;50.810;12.540;2024-03-02T23:49:21;3.60;99.90
20590;DHT22;10453;50.810;12.540;2024-03-02T23:53:38;3.50;99.90
20590;DHT22;10453;50.810;12.540;2024-03-02T23:57:55;3.40;99.90
